sensor_id;sensor_type;location;lat;lon;timestamp;temperature;humidity
55785;DHT22;41709;52.536;5.688;2023-04-03T00:01:32;3.10;78.90
55785;DHT22;41709;52.536;5.688;2023-04-03T00:03:58;3.10;78.80
55785;DHT22;41709;52.536;5.688;2023-04-03T00:06:25;3.00;79.00
55785;DHT22;41709;52.536;5.688;2023-04-03T00:08:51;2.90;79.10
55785;DHT22;41709;52.536;5.688;2023-04-03T00:11:18;2.90;79.30
55785;DHT22;41709;52.536;5.688;2023-04-03T00:13:43;2.90;79.20
55785;DHT22;41709;52.536;5.688;2023-04-03T00:16:10;2.90;79.40
55785;DHT22;41709;52.536;5.688;2023-04-03T00:18:36;2.90;79.40
55785;DHT22;41709;52.536;5.688;2023-04-03T00:21:02;2.90;79.30
55785;DHT22;41709;52.536;5.688;2023-04-03T00:23:28;2.90;79.50
55785;DHT22;41709;52.536;5.688;2023-04-03T00:25:54;2.90;79.60
55785;DHT22;41709;52.536;5.688;2023-04-03T00:28:19;2.90;79.70
55785;DHT22;41709;52.536;5.688;2023-04-03T00:30:45;2.90;79.50
55785;DHT22;41709;52.536;5.688;2023-04-03T00:33:14;2.90;79.30
55785;DHT22;41709;52.536;5.688;2023-04-03T00:35:40;2.90;79.30
55785;DHT22;41709;52.536;5.688;2023-04-03T00:38:06;2.90;79.40
55785;DHT22;41709;52.536;5.688;2023-04-03T00:40:39;2.90;79.40
55785;DHT22;41709;52.536;5.688;2023-04-03T00:43:19;2.90;79.30
55785;DHT22;41709;52.536;5.688;2023-04-03T00:45:48;2.80;79.50
55785;DHT22;41709;52.536;5.688;2023-04-03T00:51:17;2.80;79.70
55785;DHT22;41709;52.536;5.688;2023-04-03T00:53:53;2.80;79.70
55785;DHT22;41709;52.536;5.688;2023-04-03T00:56:21;2.70;79.70
55785;DHT22;41709;52.536;5.688;2023-04-03T00:58:55;2.70;79.80
55785;DHT22;41709;52.536;5.688;2023-04-03T01:01:24;2.70;79.90
55785;DHT22;41709;52.536;5.688;2023-04-03T01:03:50;2.80;79.80
55785;DHT22;41709;52.536;5.688;2023-04-03T01:06:17;2.70;79.80
55785;DHT22;41709;52.536;5.688;2023-04-03T01:08:48;2.80;79.70
55785;DHT22;41709;52.536;5.688;2023-04-03T01:11:14;2.70;79.60
55785;DHT22;41709;52.536;5.688;2023-04-03T01:13:40;2.70;79.80
55785;DHT22;41709;52.536;5.688;2023-04-03T01:16:07;2.70;79.40
55785;DHT22;41709;52.536;5.688;2023-04-03T01:18:33;2.70;79.70
55785;DHT22;41709;52.536;5.688;2023-04-03T01:23:53;2.60;79.90
55785;DHT22;41709;52.536;5.688;2023-04-03T01:26:21;2.70;79.90
55785;DHT22;41709;52.536;5.688;2023-04-03T01:28:46;2.70;79.90
55785;DHT22;41709;52.536;5.688;2023-04-03T01:31:43;2.70;79.80
55785;DHT22;41709;52.536;5.688;2023-04-03T01:34:04;2.70;79.70
55785;DHT22;41709;52.536;5.688;2023-04-03T01:36:31;2.70;79.80
55785;DHT22;41709;52.536;5.688;2023-04-03T01:38:58;2.60;80.00
55785;DHT22;41709;52.536;5.688;2023-04-03T01:41:25;2.60;80.00
55785;DHT22;41709;52.536;5.688;2023-04-03T01:43:51;2.60;80.00
55785;DHT22;41709;52.536;5.688;2023-04-03T01:46:17;2.60;80.20
55785;DHT22;41709;52.536;5.688;2023-04-03T01:48:43;2.50;80.30
55785;DHT22;41709;52.536;5.688;2023-04-03T01:51:09;2.50;80.60
55785;DHT22;41709;52.536;5.688;2023-04-03T01:53:34;2.40;80.70
55785;DHT22;41709;52.536;5.688;2023-04-03T01:56:00;2.40;80.80
55785;DHT22;41709;52.536;5.688;2023-04-03T01:58:25;2.40;80.90
55785;DHT22;41709;52.536;5.688;2023-04-03T02:00:52;2.40;81.10
55785;DHT22;41709;52.536;5.688;2023-04-03T02:03:17;2.30;81.30
55785;DHT22;41709;52.536;5.688;2023-04-03T02:05:43;2.30;81.40
55785;DHT22;41709;52.536;5.688;2023-04-03T02:08:09;2.30;81.50
55785;DHT22;41709;52.536;5.688;2023-04-03T02:10:35;2.30;81.60
55785;DHT22;41709;52.536;5.688;2023-04-03T02:13:00;2.20;81.80
55785;DHT22;41709;52.536;5.688;2023-04-03T02:15:26;2.10;82.10
55785;DHT22;41709;52.536;5.688;2023-04-03T02:17:52;2.10;82.40
55785;DHT22;41709;52.536;5.688;2023-04-03T02:20:17;2.00;82.60
55785;DHT22;41709;52.536;5.688;2023-04-03T02:22:43;2.00;82.90
55785;DHT22;41709;52.536;5.688;2023-04-03T02:25:09;1.90;82.90
55785;DHT22;41709;52.536;5.688;2023-04-03T02:27:35;1.90;82.90
55785;DHT22;41709;52.536;5.688;2023-04-03T02:30:02;1.90;83.10
55785;DHT22;41709;52.536;5.688;2023-04-03T02:32:27;1.90;83.20
55785;DHT22;41709;52.536;5.688;2023-04-03T02:34:53;1.90;83.30
55785;DHT22;41709;52.536;5.688;2023-04-03T02:37:18;1.90;83.30
55785;DHT22;41709;52.536;5.688;2023-04-03T02:39:44;1.90;83.50
55785;DHT22;41709;52.536;5.688;2023-04-03T02:42:10;1.90;83.50
55785;DHT22;41709;52.536;5.688;2023-04-03T02:44:35;1.80;83.60
55785;DHT22;41709;52.536;5.688;2023-04-03T02:47:01;1.80;83.60
55785;DHT22;41709;52.536;5.688;2023-04-03T02:49:28;1.80;83.70
55785;DHT22;41709;52.536;5.688;2023-04-03T02:51:53;1.80;83.90
55785;DHT22;41709;52.536;5.688;2023-04-03T02:54:19;1.80;84.10
55785;DHT22;41709;52.536;5.688;2023-04-03T02:56:44;1.70;84.20
55785;DHT22;41709;52.536;5.688;2023-04-03T02:59:10;1.70;84.50
55785;DHT22;41709;52.536;5.688;2023-04-03T03:01:35;1.70;84.70
55785;DHT22;41709;52.536;5.688;2023-04-03T03:04:01;1.70;84.70
55785;DHT22;41709;52.536;5.688;2023-04-03T03:06:27;1.70;84.70
55785;DHT22;41709;52.536;5.688;2023-04-03T03:08:52;1.60;84.80
55785;DHT22;41709;52.536;5.688;2023-04-03T03:11:18;1.60;85.00
55785;DHT22;41709;52.536;5.688;2023-04-03T03:13:44;1.50;85.20
55785;DHT22;41709;52.536;5.688;2023-04-03T03:16:10;1.60;85.20
55785;DHT22;41709;52.536;5.688;2023-04-03T03:18:35;1.60;85.00
55785;DHT22;41709;52.536;5.688;2023-04-03T03:21:02;1.60;85.00
55785;DHT22;41709;52.536;5.688;2023-04-03T03:23:30;1.60;85.30
55785;DHT22;41709;52.536;5.688;2023-04-03T03:26:01;1.60;85.40
55785;DHT22;41709;52.536;5.688;2023-04-03T03:28:27;1.50;85.40
55785;DHT22;41709;52.536;5.688;2023-04-03T03:30:53;1.50;85.70
55785;DHT22;41709;52.536;5.688;2023-04-03T03:33:18;1.40;85.90
55785;DHT22;41709;52.536;5.688;2023-04-03T03:35:44;1.40;86.00
55785;DHT22;41709;52.536;5.688;2023-04-03T03:38:10;1.40;86.00
55785;DHT22;41709;52.536;5.688;2023-04-03T03:40:36;1.50;86.00
55785;DHT22;41709;52.536;5.688;2023-04-03T03:43:01;1.40;85.90
55785;DHT22;41709;52.536;5.688;2023-04-03T03:45:27;1.40;86.00
55785;DHT22;41709;52.536;5.688;2023-04-03T03:47:53;1.50;86.00
55785;DHT22;41709;52.536;5.688;2023-04-03T03:50:18;1.40;86.10
55785;DHT22;41709;52.536;5.688;2023-04-03T03:52:44;1.50;86.20
55785;DHT22;41709;52.536;5.688;2023-04-03T03:55:10;1.50;86.10
55785;DHT22;41709;52.536;5.688;2023-04-03T03:57:36;1.50;86.10
55785;DHT22;41709;52.536;5.688;2023-04-03T04:00:02;1.50;86.10
55785;DHT22;41709;52.536;5.688;2023-04-03T04:02:28;1.50;86.20
55785;DHT22;41709;52.536;5.688;2023-04-03T04:04:54;1.40;86.20
55785;DHT22;41709;52.536;5.688;2023-04-03T04:07:20;1.40;86.40
55785;DHT22;41709;52.536;5.688;2023-04-03T04:09:45;1.40;86.60
55785;DHT22;41709;52.536;5.688;2023-04-03T04:12:11;1.30;86.60
55785;DHT22;41709;52.536;5.688;2023-04-03T04:14:36;1.30;86.60
55785;DHT22;41709;52.536;5.688;2023-04-03T04:17:02;1.30;86.90
55785;DHT22;41709;52.536;5.688;2023-04-03T04:19:28;1.20;87.10
55785;DHT22;41709;52.536;5.688;2023-04-03T04:21:53;1.20;87.30
55785;DHT22;41709;52.536;5.688;2023-04-03T04:24:19;1.20;87.40
55785;DHT22;41709;52.536;5.688;2023-04-03T04:26:45;1.20;87.50
55785;DHT22;41709;52.536;5.688;2023-04-03T04:29:11;1.10;87.70
55785;DHT22;41709;52.536;5.688;2023-04-03T04:31:36;1.00;88.00
55785;DHT22;41709;52.536;5.688;2023-04-03T04:34:02;1.00;88.20
55785;DHT22;41709;52.536;5.688;2023-04-03T04:36:27;1.00;88.30
55785;DHT22;41709;52.536;5.688;2023-04-03T04:38:53;1.00;88.20
55785;DHT22;41709;52.536;5.688;2023-04-03T04:41:22;1.00;88.50
55785;DHT22;41709;52.536;5.688;2023-04-03T04:43:49;1.00;88.20
55785;DHT22;41709;52.536;5.688;2023-04-03T04:46:14;1.00;88.20
55785;DHT22;41709;52.536;5.688;2023-04-03T04:48:40;1.00;88.10
55785;DHT22;41709;52.536;5.688;2023-04-03T04:51:07;1.00;88.00
55785;DHT22;41709;52.536;5.688;2023-04-03T04:53:32;1.00;88.00
55785;DHT22;41709;52.536;5.688;2023-04-03T04:55:58;1.00;88.00
55785;DHT22;41709;52.536;5.688;2023-04-03T04:58:23;1.00;88.10
55785;DHT22;41709;52.536;5.688;2023-04-03T05:00:49;1.00;88.10
55785;DHT22;41709;52.536;5.688;2023-04-03T05:03:15;1.00;88.20
55785;DHT22;41709;52.536;5.688;2023-04-03T05:05:40;1.00;88.20
55785;DHT22;41709;52.536;5.688;2023-04-03T05:08:06;1.00;88.20
55785;DHT22;41709;52.536;5.688;2023-04-03T05:10:33;0.90;88.90
55785;DHT22;41709;52.536;5.688;2023-04-03T05:12:59;0.90;88.30
55785;DHT22;41709;52.536;5.688;2023-04-03T05:15:25;0.90;88.30
55785;DHT22;41709;52.536;5.688;2023-04-03T05:17:50;0.90;88.30
55785;DHT22;41709;52.536;5.688;2023-04-03T05:20:16;0.90;88.20
55785;DHT22;41709;52.536;5.688;2023-04-03T05:22:42;0.90;88.20
55785;DHT22;41709;52.536;5.688;2023-04-03T05:25:08;0.90;88.20
55785;DHT22;41709;52.536;5.688;2023-04-03T05:27:34;0.90;88.30
55785;DHT22;41709;52.536;5.688;2023-04-03T05:29:59;0.90;88.40
55785;DHT22;41709;52.536;5.688;2023-04-03T05:32:26;0.80;88.40
55785;DHT22;41709;52.536;5.688;2023-04-03T05:34:53;0.90;88.40
55785;DHT22;41709;52.536;5.688;2023-04-03T05:37:19;0.90;88.60
55785;DHT22;41709;52.536;5.688;2023-04-03T05:39:44;0.90;88.80
55785;DHT22;41709;52.536;5.688;2023-04-03T05:42:10;0.90;89.10
55785;DHT22;41709;52.536;5.688;2023-04-03T05:44:37;0.90;89.20
55785;DHT22;41709;52.536;5.688;2023-04-03T05:47:03;1.00;89.00
55785;DHT22;41709;52.536;5.688;2023-04-03T05:49:29;1.00;88.80
55785;DHT22;41709;52.536;5.688;2023-04-03T05:51:54;1.00;88.70
55785;DHT22;41709;52.536;5.688;2023-04-03T05:54:26;1.00;88.70
55785;DHT22;41709;52.536;5.688;2023-04-03T05:56:52;1.10;88.70
55785;DHT22;41709;52.536;5.688;2023-04-03T05:59:18;1.10;88.80
55785;DHT22;41709;52.536;5.688;2023-04-03T06:01:44;1.10;89.00
55785;DHT22;41709;52.536;5.688;2023-04-03T06:04:10;1.20;89.00
55785;DHT22;41709;52.536;5.688;2023-04-03T06:07:02;1.20;89.10
55785;DHT22;41709;52.536;5.688;2023-04-03T06:09:28;1.20;89.20
55785;DHT22;41709;52.536;5.688;2023-04-03T06:11:54;1.30;89.20
55785;DHT22;41709;52.536;5.688;2023-04-03T06:14:21;1.40;88.80
55785;DHT22;41709;52.536;5.688;2023-04-03T06:16:47;1.40;88.30
55785;DHT22;41709;52.536;5.688;2023-04-03T06:19:12;1.40;88.00
55785;DHT22;41709;52.536;5.688;2023-04-03T06:21:38;1.30;87.70
55785;DHT22;41709;52.536;5.688;2023-04-03T06:24:05;1.30;87.50
55785;DHT22;41709;52.536;5.688;2023-04-03T06:26:31;1.30;87.40
55785;DHT22;41709;52.536;5.688;2023-04-03T06:28:57;1.20;87.60
55785;DHT22;41709;52.536;5.688;2023-04-03T06:31:23;1.20;87.90
55785;DHT22;41709;52.536;5.688;2023-04-03T06:33:49;1.10;88.50
55785;DHT22;41709;52.536;5.688;2023-04-03T06:36:15;1.20;88.90
55785;DHT22;41709;52.536;5.688;2023-04-03T06:38:44;1.30;89.30
55785;DHT22;41709;52.536;5.688;2023-04-03T06:41:10;1.40;89.00
55785;DHT22;41709;52.536;5.688;2023-04-03T06:43:36;1.60;88.70
55785;DHT22;41709;52.536;5.688;2023-04-03T06:46:02;1.80;88.20
55785;DHT22;41709;52.536;5.688;2023-04-03T06:48:27;2.00;87.20
55785;DHT22;41709;52.536;5.688;2023-04-03T06:50:53;2.20;86.20
55785;DHT22;41709;52.536;5.688;2023-04-03T06:53:19;2.60;85.40
55785;DHT22;41709;52.536;5.688;2023-04-03T06:55:44;2.80;84.40
55785;DHT22;41709;52.536;5.688;2023-04-03T06:58:10;3.00;82.70
55785;DHT22;41709;52.536;5.688;2023-04-03T07:00:36;3.20;81.90
55785;DHT22;41709;52.536;5.688;2023-04-03T07:03:01;3.40;80.90
55785;DHT22;41709;52.536;5.688;2023-04-03T07:05:27;3.60;79.80
55785;DHT22;41709;52.536;5.688;2023-04-03T07:07:53;3.80;78.70
55785;DHT22;41709;52.536;5.688;2023-04-03T07:10:19;4.10;78.80
55785;DHT22;41709;52.536;5.688;2023-04-03T07:12:44;4.30;77.20
55785;DHT22;41709;52.536;5.688;2023-04-03T07:15:10;4.40;76.50
55785;DHT22;41709;52.536;5.688;2023-04-03T07:17:38;4.60;75.40
55785;DHT22;41709;52.536;5.688;2023-04-03T07:20:04;4.80;74.70
55785;DHT22;41709;52.536;5.688;2023-04-03T07:22:30;5.00;74.30
55785;DHT22;41709;52.536;5.688;2023-04-03T07:24:55;5.20;73.50
55785;DHT22;41709;52.536;5.688;2023-04-03T07:27:21;5.40;73.00
55785;DHT22;41709;52.536;5.688;2023-04-03T07:29:47;5.50;71.60
55785;DHT22;41709;52.536;5.688;2023-04-03T07:32:14;5.40;71.00
55785;DHT22;41709;52.536;5.688;2023-04-03T07:34:40;5.40;71.40
55785;DHT22;41709;52.536;5.688;2023-04-03T07:37:06;5.30;70.90
55785;DHT22;41709;52.536;5.688;2023-04-03T07:39:32;5.10;71.10
55785;DHT22;41709;52.536;5.688;2023-04-03T07:41:58;4.90;71.70
55785;DHT22;41709;52.536;5.688;2023-04-03T07:44:24;4.80;72.10
55785;DHT22;41709;52.536;5.688;2023-04-03T07:46:49;4.70;72.40
55785;DHT22;41709;52.536;5.688;2023-04-03T07:49:16;4.70;72.90
55785;DHT22;41709;52.536;5.688;2023-04-03T07:51:43;4.60;73.00
55785;DHT22;41709;52.536;5.688;2023-04-03T07:54:09;4.50;73.10
55785;DHT22;41709;52.536;5.688;2023-04-03T07:56:35;4.40;73.10
55785;DHT22;41709;52.536;5.688;2023-04-03T07:59:01;4.40;73.00
55785;DHT22;41709;52.536;5.688;2023-04-03T08:01:26;4.30;73.10
55785;DHT22;41709;52.536;5.688;2023-04-03T08:03:52;4.30;73.40
55785;DHT22;41709;52.536;5.688;2023-04-03T08:06:18;4.30;73.70
55785;DHT22;41709;52.536;5.688;2023-04-03T08:08:44;4.30;72.80
55785;DHT22;41709;52.536;5.688;2023-04-03T08:11:11;4.30;72.50
55785;DHT22;41709;52.536;5.688;2023-04-03T08:13:37;4.30;72.60
55785;DHT22;41709;52.536;5.688;2023-04-03T08:16:20;4.30;72.70
55785;DHT22;41709;52.536;5.688;2023-04-03T08:18:47;4.30;72.20
55785;DHT22;41709;52.536;5.688;2023-04-03T08:21:13;4.30;72.30
55785;DHT22;41709;52.536;5.688;2023-04-03T08:23:41;4.30;72.70
55785;DHT22;41709;52.536;5.688;2023-04-03T08:26:12;4.40;72.10
55785;DHT22;41709;52.536;5.688;2023-04-03T08:28:38;4.30;71.80
55785;DHT22;41709;52.536;5.688;2023-04-03T08:31:09;4.20;72.30
55785;DHT22;41709;52.536;5.688;2023-04-03T08:33:37;4.30;71.30
55785;DHT22;41709;52.536;5.688;2023-04-03T08:36:14;4.30;71.40
55785;DHT22;41709;52.536;5.688;2023-04-03T08:38:40;4.40;71.90
55785;DHT22;41709;52.536;5.688;2023-04-03T08:46:55;4.50;69.30
55785;DHT22;41709;52.536;5.688;2023-04-03T08:49:44;4.60;69.80
55785;DHT22;41709;52.536;5.688;2023-04-03T08:52:18;4.60;68.10
55785;DHT22;41709;52.536;5.688;2023-04-03T08:54:56;4.60;69.10
55785;DHT22;41709;52.536;5.688;2023-04-03T08:57:44;4.70;69.30
55785;DHT22;41709;52.536;5.688;2023-04-03T09:05:14;5.00;65.80
55785;DHT22;41709;52.536;5.688;2023-04-03T09:08:04;5.10;65.90
55785;DHT22;41709;52.536;5.688;2023-04-03T09:10:30;5.20;65.10
55785;DHT22;41709;52.536;5.688;2023-04-03T09:15:50;5.10;63.80
55785;DHT22;41709;52.536;5.688;2023-04-03T09:18:28;5.20;64.70
55785;DHT22;41709;52.536;5.688;2023-04-03T09:21:08;5.30;63.90
55785;DHT22;41709;52.536;5.688;2023-04-03T09:26:07;5.30;61.70
55785;DHT22;41709;52.536;5.688;2023-04-03T09:28:38;5.30;60.80
55785;DHT22;41709;52.536;5.688;2023-04-03T09:31:16;5.30;62.20
55785;DHT22;41709;52.536;5.688;2023-04-03T09:33:43;5.30;61.60
55785;DHT22;41709;52.536;5.688;2023-04-03T09:36:10;5.30;62.90
55785;DHT22;41709;52.536;5.688;2023-04-03T09:38:36;5.50;62.40
55785;DHT22;41709;52.536;5.688;2023-04-03T09:41:05;5.50;60.30
55785;DHT22;41709;52.536;5.688;2023-04-03T09:43:33;5.50;59.80
55785;DHT22;41709;52.536;5.688;2023-04-03T09:46:32;5.70;60.90
55785;DHT22;41709;52.536;5.688;2023-04-03T09:49:01;5.70;60.80
55785;DHT22;41709;52.536;5.688;2023-04-03T09:51:28;5.70;59.50
55785;DHT22;41709;52.536;5.688;2023-04-03T09:53:54;5.80;60.00
55785;DHT22;41709;52.536;5.688;2023-04-03T09:56:27;5.80;59.80
55785;DHT22;41709;52.536;5.688;2023-04-03T10:01:37;6.00;58.40
55785;DHT22;41709;52.536;5.688;2023-04-03T10:04:17;6.10;57.60
55785;DHT22;41709;52.536;5.688;2023-04-03T10:06:48;6.20;57.20
55785;DHT22;41709;52.536;5.688;2023-04-03T10:14:37;6.20;57.60
55785;DHT22;41709;52.536;5.688;2023-04-03T10:17:17;6.20;57.00
55785;DHT22;41709;52.536;5.688;2023-04-03T10:19:50;6.30;55.50
55785;DHT22;41709;52.536;5.688;2023-04-03T10:25:18;6.50;54.00
55785;DHT22;41709;52.536;5.688;2023-04-03T10:36:50;6.80;54.40
55785;DHT22;41709;52.536;5.688;2023-04-03T10:39:45;7.00;53.70
55785;DHT22;41709;52.536;5.688;2023-04-03T10:50:31;7.10;50.50
55785;DHT22;41709;52.536;5.688;2023-04-03T10:55:46;7.20;49.40
55785;DHT22;41709;52.536;5.688;2023-04-03T10:58:24;7.20;49.80
55785;DHT22;41709;52.536;5.688;2023-04-03T11:00:53;7.30;49.60
55785;DHT22;41709;52.536;5.688;2023-04-03T11:03:38;7.20;50.40
55785;DHT22;41709;52.536;5.688;2023-04-03T11:06:09;7.40;50.00
55785;DHT22;41709;52.536;5.688;2023-04-03T11:08:45;7.50;49.00
55785;DHT22;41709;52.536;5.688;2023-04-03T11:11:15;7.40;49.70
55785;DHT22;41709;52.536;5.688;2023-04-03T11:14:08;7.40;50.30
55785;DHT22;41709;52.536;5.688;2023-04-03T11:16:39;7.50;50.20
55785;DHT22;41709;52.536;5.688;2023-04-03T11:19:27;7.50;49.20
55785;DHT22;41709;52.536;5.688;2023-04-03T11:24:40;7.40;50.70
55785;DHT22;41709;52.536;5.688;2023-04-03T11:27:17;7.40;50.00
55785;DHT22;41709;52.536;5.688;2023-04-03T11:29:47;7.60;50.90
55785;DHT22;41709;52.536;5.688;2023-04-03T11:32:34;7.60;48.80
55785;DHT22;41709;52.536;5.688;2023-04-03T11:35:06;7.70;50.10
55785;DHT22;41709;52.536;5.688;2023-04-03T11:37:43;7.80;49.50
55785;DHT22;41709;52.536;5.688;2023-04-03T11:42:49;7.60;49.30
55785;DHT22;41709;52.536;5.688;2023-04-03T11:47:53;7.40;49.10
55785;DHT22;41709;52.536;5.688;2023-04-03T11:50:38;7.30;48.70
55785;DHT22;41709;52.536;5.688;2023-04-03T12:05:56;7.70;48.80
55785;DHT22;41709;52.536;5.688;2023-04-03T12:19:24;7.80;48.30
55785;DHT22;41709;52.536;5.688;2023-04-03T12:24:30;7.80;48.40
55785;DHT22;41709;52.536;5.688;2023-04-03T12:37:06;8.00;48.20
55785;DHT22;41709;52.536;5.688;2023-04-03T12:40:36;8.10;48.00
55785;DHT22;41709;52.536;5.688;2023-04-03T12:45:25;8.20;47.90
55785;DHT22;41709;52.536;5.688;2023-04-03T12:47:53;8.30;47.80
55785;DHT22;41709;52.536;5.688;2023-04-03T12:53:03;8.30;47.40
55785;DHT22;41709;52.536;5.688;2023-04-03T12:55:29;8.30;48.30
55785;DHT22;41709;52.536;5.688;2023-04-03T12:57:55;8.20;48.70
55785;DHT22;41709;52.536;5.688;2023-04-03T13:00:29;8.10;49.00
55785;DHT22;41709;52.536;5.688;2023-04-03T13:02:55;8.00;48.40
55785;DHT22;41709;52.536;5.688;2023-04-03T13:05:22;7.90;49.00
55785;DHT22;41709;52.536;5.688;2023-04-03T13:08:10;7.80;49.40
55785;DHT22;41709;52.536;5.688;2023-04-03T13:10:53;7.60;50.00
55785;DHT22;41709;52.536;5.688;2023-04-03T13:13:19;7.60;49.70
55785;DHT22;41709;52.536;5.688;2023-04-03T13:15:48;7.70;49.60
55785;DHT22;41709;52.536;5.688;2023-04-03T13:18:41;7.70;49.10
55785;DHT22;41709;52.536;5.688;2023-04-03T13:21:15;7.80;49.90
55785;DHT22;41709;52.536;5.688;2023-04-03T13:23:45;7.70;49.50
55785;DHT22;41709;52.536;5.688;2023-04-03T13:26:12;7.80;49.70
55785;DHT22;41709;52.536;5.688;2023-04-03T13:28:42;7.90;50.40
55785;DHT22;41709;52.536;5.688;2023-04-03T13:31:19;8.00;49.50
55785;DHT22;41709;52.536;5.688;2023-04-03T13:34:02;8.20;49.90
55785;DHT22;41709;52.536;5.688;2023-04-03T13:36:39;8.30;49.30
55785;DHT22;41709;52.536;5.688;2023-04-03T13:41:43;8.80;48.20
55785;DHT22;41709;52.536;5.688;2023-04-03T13:46:56;9.30;47.90
55785;DHT22;41709;52.536;5.688;2023-04-03T13:49:26;9.60;47.60
55785;DHT22;41709;52.536;5.688;2023-04-03T13:51:53;9.90;46.20
55785;DHT22;41709;52.536;5.688;2023-04-03T13:54:24;10.10;46.00
55785;DHT22;41709;52.536;5.688;2023-04-03T13:56:55;10.40;45.60
55785;DHT22;41709;52.536;5.688;2023-04-03T13:59:32;10.50;45.80
55785;DHT22;41709;52.536;5.688;2023-04-03T14:04:30;10.90;46.60
55785;DHT22;41709;52.536;5.688;2023-04-03T14:06:57;11.20;44.10
55785;DHT22;41709;52.536;5.688;2023-04-03T14:09:26;11.20;44.00
55785;DHT22;41709;52.536;5.688;2023-04-03T14:11:58;11.30;43.20
55785;DHT22;41709;52.536;5.688;2023-04-03T14:14:31;11.40;43.50
55785;DHT22;41709;52.536;5.688;2023-04-03T14:17:00;11.30;43.10
55785;DHT22;41709;52.536;5.688;2023-04-03T14:19:29;11.30;43.40
55785;DHT22;41709;52.536;5.688;2023-04-03T14:21:55;11.00;43.20
55785;DHT22;41709;52.536;5.688;2023-04-03T14:24:22;10.80;44.80
55785;DHT22;41709;52.536;5.688;2023-04-03T14:26:50;10.70;44.30
55785;DHT22;41709;52.536;5.688;2023-04-03T14:29:16;10.70;44.00
55785;DHT22;41709;52.536;5.688;2023-04-03T14:31:43;10.80;45.10
55785;DHT22;41709;52.536;5.688;2023-04-03T14:34:13;11.10;44.70
55785;DHT22;41709;52.536;5.688;2023-04-03T14:36:41;11.10;43.30
55785;DHT22;41709;52.536;5.688;2023-04-03T14:39:11;11.10;43.80
55785;DHT22;41709;52.536;5.688;2023-04-03T14:41:42;11.10;44.10
55785;DHT22;41709;52.536;5.688;2023-04-03T14:44:07;11.00;43.30
55785;DHT22;41709;52.536;5.688;2023-04-03T14:46:36;10.70;43.50
55785;DHT22;41709;52.536;5.688;2023-04-03T14:49:03;10.50;44.90
55785;DHT22;41709;52.536;5.688;2023-04-03T14:51:33;10.40;44.80
55785;DHT22;41709;52.536;5.688;2023-04-03T14:53:58;10.20;44.90
55785;DHT22;41709;52.536;5.688;2023-04-03T14:56:28;10.10;44.50
55785;DHT22;41709;52.536;5.688;2023-04-03T14:59:00;9.80;45.10
55785;DHT22;41709;52.536;5.688;2023-04-03T15:01:27;9.80;45.50
55785;DHT22;41709;52.536;5.688;2023-04-03T15:03:53;10.00;45.00
55785;DHT22;41709;52.536;5.688;2023-04-03T15:06:19;10.20;45.60
55785;DHT22;41709;52.536;5.688;2023-04-03T15:08:47;10.00;46.10
55785;DHT22;41709;52.536;5.688;2023-04-03T15:11:13;10.00;47.20
55785;DHT22;41709;52.536;5.688;2023-04-03T15:13:39;10.00;46.60
55785;DHT22;41709;52.536;5.688;2023-04-03T15:16:11;9.90;47.20
55785;DHT22;41709;52.536;5.688;2023-04-03T15:18:38;9.90;47.60
55785;DHT22;41709;52.536;5.688;2023-04-03T15:21:05;10.00;47.30
55785;DHT22;41709;52.536;5.688;2023-04-03T15:23:30;10.10;47.00
55785;DHT22;41709;52.536;5.688;2023-04-03T15:25:56;10.00;46.20
55785;DHT22;41709;52.536;5.688;2023-04-03T15:28:38;10.00;46.10
55785;DHT22;41709;52.536;5.688;2023-04-03T15:31:05;9.80;46.20
55785;DHT22;41709;52.536;5.688;2023-04-03T15:33:31;9.60;46.30
55785;DHT22;41709;52.536;5.688;2023-04-03T15:35:57;9.40;46.70
55785;DHT22;41709;52.536;5.688;2023-04-03T15:38:23;9.30;47.40
55785;DHT22;41709;52.536;5.688;2023-04-03T15:40:48;9.30;47.10
55785;DHT22;41709;52.536;5.688;2023-04-03T15:43:15;9.10;47.70
55785;DHT22;41709;52.536;5.688;2023-04-03T15:45:42;9.10;47.20
55785;DHT22;41709;52.536;5.688;2023-04-03T15:48:08;9.00;47.40
55785;DHT22;41709;52.536;5.688;2023-04-03T15:50:34;9.00;47.90
55785;DHT22;41709;52.536;5.688;2023-04-03T15:53:00;9.10;48.00
55785;DHT22;41709;52.536;5.688;2023-04-03T15:55:29;9.10;47.20
55785;DHT22;41709;52.536;5.688;2023-04-03T15:57:55;9.00;48.20
55785;DHT22;41709;52.536;5.688;2023-04-03T16:00:21;8.90;48.00
55785;DHT22;41709;52.536;5.688;2023-04-03T16:02:49;8.90;47.60
55785;DHT22;41709;52.536;5.688;2023-04-03T16:05:16;8.90;48.80
55785;DHT22;41709;52.536;5.688;2023-04-03T16:07:43;8.90;48.90
55785;DHT22;41709;52.536;5.688;2023-04-03T16:10:13;8.90;49.10
55785;DHT22;41709;52.536;5.688;2023-04-03T16:12:39;8.90;49.00
55785;DHT22;41709;52.536;5.688;2023-04-03T16:15:05;8.80;48.40
55785;DHT22;41709;52.536;5.688;2023-04-03T16:17:32;8.70;48.00
55785;DHT22;41709;52.536;5.688;2023-04-03T16:19:59;8.70;49.50
55785;DHT22;41709;52.536;5.688;2023-04-03T16:22:26;8.80;49.10
55785;DHT22;41709;52.536;5.688;2023-04-03T16:24:52;8.60;48.90
55785;DHT22;41709;52.536;5.688;2023-04-03T16:27:18;8.60;49.40
55785;DHT22;41709;52.536;5.688;2023-04-03T16:29:44;8.70;49.70
55785;DHT22;41709;52.536;5.688;2023-04-03T16:32:09;8.80;49.20
55785;DHT22;41709;52.536;5.688;2023-04-03T16:34:35;8.80;49.40
55785;DHT22;41709;52.536;5.688;2023-04-03T16:37:01;8.80;49.50
55785;DHT22;41709;52.536;5.688;2023-04-03T16:39:27;8.80;50.10
55785;DHT22;41709;52.536;5.688;2023-04-03T16:41:52;8.90;48.70
55785;DHT22;41709;52.536;5.688;2023-04-03T16:44:18;9.00;48.70
55785;DHT22;41709;52.536;5.688;2023-04-03T16:46:44;9.00;48.60
55785;DHT22;41709;52.536;5.688;2023-04-03T16:49:09;9.00;47.60
55785;DHT22;41709;52.536;5.688;2023-04-03T16:51:35;8.80;48.20
55785;DHT22;41709;52.536;5.688;2023-04-03T16:54:00;8.80;48.80
55785;DHT22;41709;52.536;5.688;2023-04-03T16:56:26;8.70;48.80
55785;DHT22;41709;52.536;5.688;2023-04-03T16:58:55;8.70;49.70
55785;DHT22;41709;52.536;5.688;2023-04-03T17:01:22;8.70;50.00
55785;DHT22;41709;52.536;5.688;2023-04-03T17:03:48;8.70;49.80
55785;DHT22;41709;52.536;5.688;2023-04-03T17:06:19;8.70;49.30
55785;DHT22;41709;52.536;5.688;2023-04-03T17:08:47;8.90;49.10
55785;DHT22;41709;52.536;5.688;2023-04-03T17:11:14;9.00;49.00
55785;DHT22;41709;52.536;5.688;2023-04-03T17:13:39;9.00;49.30
55785;DHT22;41709;52.536;5.688;2023-04-03T17:16:08;8.90;50.00
55785;DHT22;41709;52.536;5.688;2023-04-03T17:18:35;9.00;49.10
55785;DHT22;41709;52.536;5.688;2023-04-03T17:21:01;9.00;48.90
55785;DHT22;41709;52.536;5.688;2023-04-03T17:23:28;8.90;49.40
55785;DHT22;41709;52.536;5.688;2023-04-03T17:25:54;8.90;50.20
55785;DHT22;41709;52.536;5.688;2023-04-03T17:28:21;8.90;49.90
55785;DHT22;41709;52.536;5.688;2023-04-03T17:30:50;8.90;49.10
55785;DHT22;41709;52.536;5.688;2023-04-03T17:33:15;8.90;49.10
55785;DHT22;41709;52.536;5.688;2023-04-03T17:35:41;8.80;49.40
55785;DHT22;41709;52.536;5.688;2023-04-03T17:38:06;8.70;49.70
55785;DHT22;41709;52.536;5.688;2023-04-03T17:40:32;8.60;49.90
55785;DHT22;41709;52.536;5.688;2023-04-03T17:42:58;8.50;50.40